createdAt,value
2022-11-01T00:00:27.732Z,95493.19
2022-11-01T00:01:29.604Z,95493.19
2022-11-01T00:02:31.241Z,95498.25
2022-11-01T00:03:33.162Z,95496.72
2022-11-01T00:04:34.705Z,95492.44
2022-11-01T00:05:36.228Z,95489.63
2022-11-01T00:06:38.151Z,95498.03
2022-11-01T00:07:39.710Z,95495.78
2022-11-01T00:08:41.228Z,95497.84
2022-11-01T00:09:42.809Z,95497.84
2022-11-01T00:10:44.371Z,95490.50
2022-11-01T00:11:46.265Z,95495.38
2022-11-01T00:12:48.598Z,95503.22
2022-11-01T00:13:50.741Z,95497.63
2022-11-01T00:14:52.329Z,95497.44
2022-11-01T00:15:53.828Z,95493.09
2022-11-01T00:16:55.493Z,95490.69
2022-11-01T00:17:57.024Z,95492.75
2022-11-01T00:18:58.576Z,95500.44
2022-11-01T00:20:00.085Z,95492.56
2022-11-01T00:21:01.606Z,95490.50
2022-11-01T00:22:03.363Z,95497.63
2022-11-01T00:23:05.244Z,95487.72
2022-11-01T00:24:06.947Z,95491.81
2022-11-01T00:25:09.001Z,95489.00
2022-11-01T00:26:17.555Z,95491.03
2022-11-01T00:27:20.180Z,95486.41
2022-11-01T00:28:21.713Z,95487.16
2022-11-01T00:29:23.398Z,95492.75
2022-11-01T00:30:25.060Z,95492.97
2022-11-01T00:31:26.812Z,95492.44
2022-11-01T00:32:28.346Z,95483.25
2022-11-01T00:33:29.887Z,95490.38
2022-11-01T00:34:31.404Z,95491.13
2022-11-01T00:35:33.501Z,95485.31
2022-11-01T00:36:36.350Z,95486.81
2022-11-01T00:37:37.902Z,95484.22
2022-11-01T00:38:39.705Z,95489.84
2022-11-01T00:39:41.217Z,95488.31
2022-11-01T00:40:43.877Z,95480.13
2022-11-01T00:41:45.453Z,95493.41
2022-11-01T00:42:47.009Z,95483.91
2022-11-01T00:43:49.130Z,95487.22
2022-11-01T00:44:50.643Z,95492.84
2022-11-01T00:45:52.156Z,95488.75
2022-11-01T00:46:53.673Z,95483.16
2022-11-01T00:47:55.345Z,95492.84
2022-11-01T00:48:56.893Z,95489.28
2022-11-01T00:49:58.485Z,95487.97
2022-11-01T00:50:59.973Z,95487.22
2022-11-01T00:52:01.520Z,95488.53
2022-11-01T00:53:03.129Z,95496.19
2022-11-01T00:54:04.762Z,95483.47
2022-11-01T00:55:06.749Z,95491.13
2022-11-01T00:56:08.509Z,95499.53
2022-11-01T00:57:10.052Z,95493.19
2022-11-01T00:58:11.581Z,95490.94
2022-11-01T00:59:13.079Z,95499.53
2022-11-01T01:00:16.295Z,95496.53
2022-11-01T01:01:17.911Z,95492.44
2022-11-01T01:02:19.648Z,95492.44
2022-11-01T01:03:21.500Z,95496.53
2022-11-01T01:04:23.008Z,95493.72
2022-11-01T01:05:24.750Z,95489.63
2022-11-01T01:06:26.268Z,95487.56
2022-11-01T01:07:27.797Z,95496.53
2022-11-01T01:08:29.368Z,95490.94
2022-11-01T01:09:30.951Z,95498.03
2022-11-01T01:10:32.961Z,95494.69
2022-11-01T01:11:34.535Z,95491.69
2022-11-01T01:12:36.592Z,95487.16
2022-11-01T01:13:38.118Z,95492.75
2022-11-01T01:14:39.691Z,95487.91
2022-11-01T01:15:41.283Z,95499.91
2022-11-01T01:17:49.232Z,95495.03
2022-11-01T01:18:50.733Z,95493.72
2022-11-01T01:19:52.545Z,95492.44
2022-11-01T01:21:01.204Z,95495.03
2022-11-01T01:22:02.975Z,95498.25
2022-11-01T01:23:04.880Z,95492.44
2022-11-01T01:24:06.468Z,95496.19
2022-11-01T01:25:08.920Z,95496.72
2022-11-01T01:26:11.167Z,95488.31
2022-11-01T01:27:13.637Z,95493.94
2022-11-01T01:28:15.162Z,95490.38
2022-11-01T01:29:16.964Z,95493.94
2022-11-01T01:30:18.989Z,95489.09
2022-11-01T01:31:20.538Z,95498.25
2022-11-01T01:32:23.533Z,95498.59
2022-11-01T01:33:25.109Z,95496.53
2022-11-01T01:34:26.633Z,95496.53
2022-11-01T01:35:28.167Z,95495.56
2022-11-01T01:36:29.697Z,95497.63
2022-11-01T01:37:31.281Z,95496.31
2022-11-01T01:38:33.141Z,95498.38
2022-11-01T01:39:35.437Z,95499.91
2022-11-01T01:40:36.960Z,95494.06
2022-11-01T01:41:56.903Z,95503.22
2022-11-01T01:42:58.563Z,95497.63
2022-11-01T01:44:00.135Z,95494.81
2022-11-01T01:45:04.658Z,95500.22
2022-11-01T01:46:06.198Z,95497.22
2022-11-01T01:47:10.363Z,95503.03
2022-11-01T01:48:17.316Z,95497.44
2022-11-01T01:49:18.899Z,95502.47
2022-11-01T01:50:24.979Z,95497.44
2022-11-01T01:51:28.360Z,95505.84
2022-11-01T01:52:33.512Z,95500.97
2022-11-01T01:53:38.714Z,95503.22
2022-11-01T01:54:40.450Z,95498.94
2022-11-01T01:55:48.789Z,95506.91
2022-11-01T01:56:50.511Z,95501.72
2022-11-01T01:57:55.453Z,95502.81
2022-11-01T01:59:05.250Z,95505.06
2022-11-01T02:00:07.725Z,95500.00
2022-11-01T02:01:09.409Z,95505.84
2022-11-01T02:02:12.227Z,95509.91
2022-11-01T02:03:14.717Z,95506.91
2022-11-01T02:04:28.935Z,95504.66
2022-11-01T02:05:44.493Z,95503.03
2022-11-01T02:06:47.766Z,95494.41
2022-11-01T02:07:49.532Z,95501.31
2022-11-01T02:08:57.986Z,95502.41
2022-11-01T02:09:59.768Z,95505.41
2022-11-01T02:11:04.183Z,95499.03
2022-11-01T02:12:06.769Z,95498.28
2022-11-01T02:13:13.411Z,95500.91
2022-11-01T02:14:18.096Z,95503.91
2022-11-01T02:15:23.924Z,95498.28
2022-11-01T02:16:38.448Z,95499.81
2022-11-01T02:17:51.664Z,95503.47
2022-11-01T02:19:31.624Z,95497.34
2022-11-01T02:20:41.320Z,95509.16
2022-11-01T02:22:04.865Z,95499.03
2022-11-01T02:23:21.549Z,95509.31
2022-11-01T02:25:00.577Z,95509.09
2022-11-01T02:26:39.176Z,95502.97
2022-11-01T02:28:01.173Z,95505.00
2022-11-01T02:29:06.007Z,95512.53
2022-11-01T02:30:21.481Z,95505.94
2022-11-01T02:31:35.656Z,95503.91
2022-11-01T02:33:14.293Z,95510.63
2022-11-01T02:34:32.892Z,95507.81
2022-11-01T02:35:44.143Z,95512.13
2022-11-01T02:36:49.373Z,95511.03
2022-11-01T02:37:56.728Z,95509.50
2022-11-01T02:39:02.186Z,95513.84
2022-11-01T02:40:11.233Z,95513.63
2022-11-01T02:41:27.509Z,95512.88
2022-11-01T02:42:42.612Z,95524.84
2022-11-01T02:43:55.178Z,95515.13
2022-11-01T02:45:10.929Z,95515.44
2022-11-01T02:46:31.014Z,95523.53
2022-11-01T02:47:33.588Z,95530.25
2022-11-01T02:48:35.769Z,95526.66
2022-11-01T02:49:41.713Z,95527.97
2022-11-01T02:50:47.952Z,95530.03
2022-11-01T02:51:51.184Z,95527.44
2022-11-01T02:52:53.612Z,95527.44
2022-11-01T02:53:55.123Z,95535.84
2022-11-01T02:54:58.799Z,95530.03
2022-11-01T02:56:00.515Z,95528.53
2022-11-01T02:57:13.908Z,95532.41
2022-11-01T02:58:28.611Z,95524.75
2022-11-01T02:59:30.184Z,95531.53
2022-11-01T03:00:36.670Z,95530.03
2022-11-01T03:01:40.251Z,95529.47
2022-11-01T03:02:44.519Z,95530.78
2022-11-01T03:03:48.901Z,95534.31
2022-11-01T03:04:50.999Z,95528.72
2022-11-01T03:06:04.180Z,95531.53
2022-11-01T03:07:10.407Z,95531.53
2022-11-01T03:08:20.343Z,95535.63
2022-11-01T03:09:21.997Z,95533.03
2022-11-01T03:10:35.251Z,95527.00
2022-11-01T03:11:54.393Z,95538.22
2022-11-01T03:13:32.529Z,95533.91
2022-11-01T03:14:41.996Z,95535.63
2022-11-01T03:15:53.781Z,95539.75
2022-11-01T03:17:07.336Z,95539.00
2022-11-01T03:18:16.082Z,95537.47
2022-11-01T03:19:38.811Z,95540.59
2022-11-01T03:20:47.844Z,95544.94
2022-11-01T03:22:03.832Z,95537.03
2022-11-01T03:23:06.289Z,95543.63
2022-11-01T03:24:27.663Z,95535.53
2022-11-01T03:25:44.353Z,95541.91
2022-11-01T03:26:54.085Z,95544.50
2022-11-01T03:27:57.829Z,95537.78
2022-11-01T03:29:03.190Z,95533.72
2022-11-01T03:30:14.207Z,95537.38
2022-11-01T03:31:23.305Z,95543.19
2022-11-01T03:32:30.680Z,95543.41
2022-11-01T03:33:35.243Z,95540.59
2022-11-01T03:34:40.270Z,95533.72
2022-11-01T03:35:47.697Z,95536.50
2022-11-01T03:36:57.780Z,95536.28
2022-11-01T03:38:04.652Z,95547.50
2022-11-01T03:39:14.719Z,95534.25
2022-11-01T03:40:17.896Z,95542.13
2022-11-01T03:41:22.360Z,95531.66
2022-11-01T03:42:24.440Z,95535.22
2022-11-01T03:43:29.407Z,95526.56
2022-11-01T03:44:36.411Z,95540.81
2022-11-01T03:45:39.849Z,95543.06
2022-11-01T03:46:42.348Z,95536.72
2022-11-01T03:47:43.937Z,95537.78
2022-11-01T03:48:45.555Z,95539.31
2022-11-01T03:49:47.117Z,95539.31
2022-11-01T03:50:50.832Z,95538.56
2022-11-01T03:51:52.377Z,95535.22
2022-11-01T03:52:54.341Z,95535.00
2022-11-01T03:53:55.962Z,95540.81
2022-11-01T03:54:57.549Z,95535.41
2022-11-01T03:55:59.828Z,95539.50
2022-11-01T03:57:01.393Z,95538.22
2022-11-01T03:58:03.301Z,95540.81
2022-11-01T03:59:05.066Z,95542.88
2022-11-01T04:00:08.829Z,95540.06
2022-11-01T04:01:12.722Z,95535.97
2022-11-01T04:02:14.369Z,95541.00
2022-11-01T04:03:15.952Z,95539.75
2022-11-01T04:04:17.469Z,95540.50
2022-11-01T04:05:20.158Z,95534.88
2022-11-01T04:06:21.670Z,95541.25
2022-11-01T04:07:23.176Z,95542.31
2022-11-01T04:08:24.733Z,95536.72
2022-11-01T04:09:26.297Z,95540.81
2022-11-01T04:10:31.576Z,95538.00
2022-11-01T04:11:33.141Z,95542.31
2022-11-01T04:12:34.812Z,95537.47
2022-11-01T04:13:36.412Z,95533.72
2022-11-01T04:14:56.155Z,95535.22
2022-11-01T04:16:17.434Z,95535.41
2022-11-01T04:17:37.375Z,95539.00
2022-11-01T04:18:57.700Z,95534.13
2022-11-01T04:20:31.131Z,95540.25
2022-11-01T04:21:32.720Z,95526.25
2022-11-01T04:22:36.268Z,95528.84
2022-11-01T04:23:38.303Z,95535.00
2022-11-01T04:24:39.816Z,95530.91
2022-11-01T04:25:41.338Z,95528.09
2022-11-01T04:26:42.843Z,95532.19
2022-11-01T04:27:44.320Z,95537.78
2022-11-01T04:28:57.156Z,95539.31
2022-11-01T04:29:59.064Z,95540.81
2022-11-01T04:31:00.782Z,95538.22
2022-11-01T04:32:03.156Z,95539.75
2022-11-01T04:33:05.073Z,95533.38
2022-11-01T04:34:06.792Z,95537.47
2022-11-01T04:35:11.397Z,95539.50
2022-11-01T04:36:13.016Z,95534.47
2022-11-01T04:37:14.544Z,95540.06
2022-11-01T04:38:16.696Z,95538.75
2022-11-01T04:39:18.194Z,95534.47
2022-11-01T04:40:20.550Z,95538.75
2022-11-01T04:41:23.729Z,95532.59
2022-11-01T04:42:25.208Z,95538.75
2022-11-01T04:43:26.728Z,95545.69
2022-11-01T04:44:28.301Z,95545.13
2022-11-01T04:45:30.005Z,95532.19
2022-11-01T04:46:32.013Z,95538.56
2022-11-01T04:47:33.645Z,95546.44
2022-11-01T04:48:35.177Z,95545.69
2022-11-01T04:49:36.737Z,95543.41
2022-11-01T04:50:38.385Z,95536.72
2022-11-01T04:51:41.515Z,95540.06
2022-11-01T04:52:43.273Z,95539.31
2022-11-01T04:53:44.783Z,95542.66
2022-11-01T04:54:46.332Z,95543.41
2022-11-01T04:55:47.873Z,95540.59
2022-11-01T04:56:49.411Z,95552.91
2022-11-01T04:57:50.965Z,95546.00
2022-11-01T04:58:52.477Z,95548.81
2022-11-01T04:59:55.683Z,95550.31
2022-11-01T05:00:57.287Z,95553.88
2022-11-01T05:01:58.927Z,95551.06
2022-11-01T05:03:05.405Z,95552.38
2022-11-01T05:04:07.316Z,95555.91
2022-11-01T05:05:10.533Z,95551.63
2022-11-01T05:06:12.068Z,95547.50
2022-11-01T05:07:14.833Z,95565.81
2022-11-01T05:08:16.435Z,95555.38
2022-11-01T05:09:17.958Z,95558.72
2022-11-01T05:10:19.465Z,95555.91
2022-11-01T05:11:25.469Z,95557.41
2022-11-01T05:12:27.773Z,95560.22
2022-11-01T05:13:29.379Z,95555.38
2022-11-01T05:14:30.922Z,95558.94
2022-11-01T05:15:32.990Z,95554.63
2022-11-01T05:16:34.500Z,95558.72
2022-11-01T05:17:36.028Z,95576.28
2022-11-01T05:18:40.824Z,95563.03
2022-11-01T05:19:42.409Z,95564.31
2022-11-01T05:20:43.973Z,95561.75
2022-11-01T05:21:45.479Z,95566.59
2022-11-01T05:22:47.252Z,95565.81
2022-11-01T05:23:49.129Z,95577.81
2022-11-01T05:24:52.819Z,95575.75
2022-11-01T05:25:54.307Z,95579.84
2022-11-01T05:26:55.872Z,95583.44
2022-11-01T05:28:11.489Z,95579.66
2022-11-01T05:29:24.351Z,95577.25
2022-11-01T05:30:33.863Z,95581.38
2022-11-01T05:31:35.559Z,95580.06
2022-11-01T05:32:40.100Z,95580.06
2022-11-01T05:33:41.618Z,95581.56
2022-11-01T05:34:43.124Z,95575.22
2022-11-01T05:35:44.660Z,95574.47
2022-11-01T05:36:46.300Z,95580.06
2022-11-01T05:37:47.857Z,95581.03
2022-11-01T05:38:49.496Z,95571.09
2022-11-01T05:39:50.993Z,95585.69
2022-11-01T05:40:52.532Z,95584.38
2022-11-01T05:41:56.849Z,95582.31
2022-11-01T05:43:01.895Z,95587.19
2022-11-01T05:44:04.022Z,95584.59
2022-11-01T05:45:06.350Z,95583.28
2022-11-01T05:46:08.521Z,95591.72
2022-11-01T05:47:12.233Z,95583.06
2022-11-01T05:48:17.747Z,95588.69
2022-11-01T05:49:19.296Z,95584.59
2022-11-01T05:50:20.873Z,95583.06
2022-11-01T05:51:22.910Z,95590.97
2022-11-01T05:52:24.440Z,95590.22
2022-11-01T05:53:25.997Z,95588.69
2022-11-01T05:54:27.514Z,95594.28
2022-11-01T05:55:29.041Z,95594.28
2022-11-01T05:56:30.612Z,95588.91
2022-11-01T05:57:33.509Z,95595.25
2022-11-01T05:58:35.284Z,95588.91
2022-11-01T05:59:36.812Z,95595.25
2022-11-01T06:00:38.329Z,95591.72
2022-11-01T06:01:40.279Z,95598.81
2022-11-01T06:02:41.955Z,95597.31
2022-11-01T06:03:43.517Z,95597.31
2022-11-01T06:04:45.078Z,95602.69
2022-11-01T06:05:46.643Z,95602.69
2022-11-01T06:06:48.158Z,95595.81
2022-11-01T06:07:49.730Z,95599.38
2022-11-01T06:08:51.248Z,95602.19
2022-11-01T06:09:52.875Z,95603.16
2022-11-01T06:11:01.612Z,95605.50
2022-11-01T06:12:03.473Z,95601.84
2022-11-01T06:13:05.296Z,95603.16
2022-11-01T06:14:07.086Z,95610.03
2022-11-01T06:15:09.019Z,95608.53
2022-11-01T06:16:10.556Z,95604.44
2022-11-01T06:17:13.457Z,95604.44
2022-11-01T06:18:14.977Z,95601.63
2022-11-01T06:19:16.498Z,95607.22
2022-11-01T06:20:18.081Z,95610.03
2022-11-01T06:21:26.051Z,95604.44
2022-11-01T06:22:30.737Z,95605.97
2022-11-01T06:23:32.320Z,95601.09
2022-11-01T06:24:34.537Z,95611.56
2022-11-01T06:25:36.721Z,95605.97
2022-11-01T06:26:38.289Z,95605.19
2022-11-01T06:27:39.819Z,95601.63
2022-11-01T06:28:41.352Z,95610.59
2022-11-01T06:29:43.014Z,95607.97
2022-11-01T06:30:44.539Z,95606.72
2022-11-01T06:31:46.189Z,95610.03
2022-11-01T06:32:47.782Z,95610.03
2022-11-01T06:33:50.232Z,95613.06
2022-11-01T06:34:51.742Z,95613.38
2022-11-01T06:35:53.236Z,95608.75
2022-11-01T06:36:54.750Z,95611.88
2022-11-01T06:38:02.392Z,95612.63
2022-11-01T06:39:03.984Z,95609.28
2022-11-01T06:40:06.761Z,95601.44
2022-11-01T06:41:08.609Z,95616.72
2022-11-01T06:42:10.331Z,95615.63
2022-11-01T06:43:11.952Z,95612.63
2022-11-01T06:44:13.463Z,95616.94
2022-11-01T06:45:16.061Z,95616.94
2022-11-01T06:46:17.664Z,95612.84
2022-11-01T06:47:19.213Z,95613.06
2022-11-01T06:48:21.962Z,95616.81
2022-11-01T06:49:23.520Z,95610.69
2022-11-01T06:50:25.303Z,95618.34
2022-11-01T06:51:27.356Z,95615.00
2022-11-01T06:52:28.910Z,95618.03
2022-11-01T06:53:30.667Z,95612.41
2022-11-01T06:54:32.653Z,95614.88
2022-11-01T06:55:34.163Z,95618.44
2022-11-01T06:56:35.686Z,95616.16
2022-11-01T06:57:37.327Z,95615.41
2022-11-01T06:58:38.881Z,95618.22
2022-11-01T06:59:40.421Z,95615.97
2022-11-01T07:00:41.997Z,95610.88
2022-11-01T07:01:44.371Z,95609.81
2022-11-01T07:02:46.171Z,95618.03
2022-11-01T07:03:52.031Z,95614.25
2022-11-01T07:04:53.583Z,95608.28
2022-11-01T07:05:55.138Z,95605.69
2022-11-01T07:06:56.691Z,95612.84
2022-11-01T07:07:59.170Z,95605.91
2022-11-01T07:09:01.103Z,95610.22
2022-11-01T07:10:02.633Z,95613.03
2022-11-01T07:11:04.283Z,95613.78
2022-11-01T07:12:06.028Z,95603.88
2022-11-01T07:13:10.535Z,95611.72
2022-11-01T07:14:12.174Z,95608.91
2022-11-01T07:15:13.737Z,95616.25
2022-11-01T07:16:15.272Z,95606.00
2022-11-01T07:17:16.808Z,95607.31
2022-11-01T07:18:18.326Z,95606.56
2022-11-01T07:19:20.023Z,95613.44
2022-11-01T07:20:21.582Z,95598.66
2022-11-01T07:21:23.422Z,95609.13
2022-11-01T07:22:24.975Z,95605.03
2022-11-01T07:23:26.503Z,95605.78
2022-11-01T07:24:28.014Z,95605.78
2022-11-01T07:25:30.578Z,95614.19
2022-11-01T07:26:32.123Z,95610.88
2022-11-01T07:27:35.940Z,95606.56
2022-11-01T07:28:38.864Z,95620.78
2022-11-01T07:29:41.649Z,95606.75
2022-11-01T07:30:43.395Z,95605.44
2022-11-01T07:31:45.060Z,95611.06
2022-11-01T07:32:46.715Z,95614.09
2022-11-01T07:33:48.251Z,95615.59
2022-11-01T07:34:49.748Z,95604.94
2022-11-01T07:35:52.623Z,95604.19
2022-11-01T07:36:54.152Z,95611.06
2022-11-01T07:38:01.256Z,95606.56
2022-11-01T07:39:05.708Z,95603.94
2022-11-01T07:40:07.542Z,95605.44
2022-11-01T07:41:09.267Z,95611.06
2022-11-01T07:42:10.774Z,95609.56
2022-11-01T07:43:12.315Z,95614.97
2022-11-01T07:44:13.829Z,95606.56
2022-11-01T07:45:15.505Z,95613.44
2022-11-01T07:46:17.052Z,95609.38
2022-11-01T07:47:18.558Z,95617.78
2022-11-01T07:48:20.135Z,95605.78
2022-11-01T07:49:21.654Z,95617.78
2022-11-01T07:50:23.492Z,95608.06
2022-11-01T07:51:25.008Z,95611.38
2022-11-01T07:52:26.613Z,95616.25
2022-11-01T07:53:28.170Z,95614.75
2022-11-01T07:54:30.009Z,95611.94
2022-11-01T07:55:31.937Z,95603.53
2022-11-01T07:56:33.745Z,95603.53
2022-11-01T07:57:39.201Z,95605.38
2022-11-01T07:58:43.678Z,95608.91
2022-11-01T07:59:45.284Z,95598.47
2022-11-01T08:00:47.080Z,95610.22
2022-11-01T08:01:48.787Z,95604.63
2022-11-01T08:02:50.827Z,95602.03
2022-11-01T08:03:52.372Z,95611.72
2022-11-01T08:04:54.594Z,95611.72
2022-11-01T08:05:56.217Z,95610.22
2022-11-01T08:06:57.723Z,95613.03
2022-11-01T08:07:59.836Z,95601.06
2022-11-01T08:09:01.695Z,95597.50
2022-11-01T08:10:03.383Z,95604.63
2022-11-01T08:11:05.649Z,95603.88
2022-11-01T08:12:07.232Z,95607.22
2022-11-01T08:13:14.051Z,95607.22
2022-11-01T08:14:15.661Z,95602.88
2022-11-01T08:15:17.307Z,95600.09
2022-11-01T08:16:18.866Z,95603.13
2022-11-01T08:17:20.415Z,95598.81
2022-11-01T08:18:24.282Z,95596.75
2022-11-01T08:19:25.802Z,95602.34
2022-11-01T08:20:27.787Z,95596.00
2022-11-01T08:21:29.562Z,95600.09
2022-11-01T08:22:31.125Z,95598.59
2022-11-01T08:23:32.681Z,95591.66
2022-11-01T08:24:34.184Z,95588.66
2022-11-01T08:25:36.330Z,95592.97
2022-11-01T08:26:37.849Z,95594.47
2022-11-01T08:27:39.425Z,95594.47
2022-11-01T08:28:41.357Z,95591.66
2022-11-01T08:29:42.902Z,95589.66
2022-11-01T08:30:47.448Z,95585.88
2022-11-01T08:31:49.295Z,95588.13
2022-11-01T08:32:58.046Z,95586.94
2022-11-01T08:33:59.587Z,95583.25
2022-11-01T08:35:01.108Z,95581.97
2022-11-01T08:36:03.492Z,95577.13
2022-11-01T08:37:05.983Z,95584.78
2022-11-01T08:38:08.748Z,95581.56
2022-11-01T08:40:17.378Z,95580.25
2022-11-01T08:41:18.895Z,95587.16
2022-11-01T08:42:20.516Z,95580.25
2022-11-01T08:43:22.044Z,95578.75
2022-11-01T08:44:23.573Z,95576.69
2022-11-01T08:45:26.120Z,95577.44
2022-11-01T08:46:27.645Z,95571.84
2022-11-01T08:47:29.172Z,95575.72
2022-11-01T08:48:30.987Z,95576.47
2022-11-01T08:49:32.488Z,95572.91
2022-11-01T08:50:34.900Z,95582.09
2022-11-01T08:51:37.133Z,95577.22
2022-11-01T08:52:39.614Z,95579.84
2022-11-01T08:53:41.134Z,95580.59
2022-11-01T08:54:42.657Z,95582.84
2022-11-01T08:55:44.298Z,95578.75
2022-11-01T08:56:46.156Z,95581.13
2022-11-01T08:57:47.916Z,95577.97
2022-11-01T08:58:49.573Z,95580.25
2022-11-01T08:59:51.212Z,95573.16
2022-11-01T09:00:52.898Z,95573.34
2022-11-01T09:01:54.755Z,95574.09
2022-11-01T09:02:56.405Z,95571.63
2022-11-01T09:03:58.461Z,95573.91
2022-11-01T09:05:02.785Z,95570.53
2022-11-01T09:06:04.417Z,95567.72
2022-11-01T09:07:05.930Z,95566.22
2022-11-01T09:08:08.509Z,95570.53
2022-11-01T09:09:13.056Z,95565.69
2022-11-01T09:10:16.565Z,95560.06
2022-11-01T09:11:18.097Z,95565.69
2022-11-01T09:12:24.402Z,95564.72
2022-11-01T09:13:26.531Z,95564.94
2022-11-01T09:14:28.204Z,95560.81
2022-11-01T09:15:30.229Z,95562.34
2022-11-01T09:16:32.886Z,95565.34
2022-11-01T09:17:34.927Z,95558.25
2022-11-01T09:18:36.546Z,95557.50
2022-11-01T09:19:38.126Z,95564.59
2022-11-01T09:20:39.680Z,95560.50
2022-11-01T09:21:43.780Z,95561.25
2022-11-01T09:22:45.553Z,95555.84
2022-11-01T09:23:47.133Z,95557.91
2022-11-01T09:24:48.661Z,95553.03
2022-11-01T09:25:50.164Z,95560.72
2022-11-01T09:26:51.714Z,95562.00
2022-11-01T09:27:56.266Z,95561.25
2022-11-01T09:28:58.716Z,95555.84
2022-11-01T09:30:00.396Z,95550.00
2022-11-01T09:31:20.180Z,95552.41
2022-11-01T09:32:22.272Z,95554.34
2022-11-01T09:33:24.317Z,95558.66
2022-11-01T09:34:26.005Z,95553.03
2022-11-01T09:35:27.498Z,95558.66
2022-11-01T09:36:29.564Z,95546.88
2022-11-01T09:37:32.493Z,95544.84
2022-11-01T09:38:36.008Z,95544.06
2022-11-01T09:39:37.543Z,95547.44
2022-11-01T09:40:45.309Z,95543.31
2022-11-01T09:41:52.390Z,95542.91
2022-11-01T09:42:57.819Z,95540.31
2022-11-01T09:44:04.709Z,95542.56
2022-11-01T09:45:10.364Z,95541.81
2022-11-01T09:46:16.772Z,95538.28
2022-11-01T09:47:25.856Z,95534.72
2022-11-01T09:48:30.060Z,95529.31
2022-11-01T09:49:38.356Z,95534.16
2022-11-01T09:50:43.739Z,95538.13
2022-11-01T09:51:45.315Z,95532.53
2022-11-01T09:52:47.168Z,95531.03
2022-11-01T09:53:51.103Z,95526.16
2022-11-01T09:54:53.270Z,95525.22
2022-11-01T09:56:14.186Z,95527.06
2022-11-01T09:58:00.817Z,95519.94
2022-11-01T09:59:16.080Z,95516.44
2022-11-01T10:00:21.813Z,95518.72
2022-11-01T10:01:26.433Z,95517.41
2022-11-01T10:02:54.801Z,95521.31
2022-11-01T10:04:06.143Z,95517.00
2022-11-01T10:05:26.199Z,95514.94
2022-11-01T10:06:43.872Z,95524.66
2022-11-01T10:07:54.208Z,95518.50
2022-11-01T10:09:33.450Z,95515.50
2022-11-01T10:10:56.109Z,95508.38
2022-11-01T10:12:10.450Z,95513.44
2022-11-01T10:13:20.800Z,95508.38
2022-11-01T10:14:54.704Z,95510.41
2022-11-01T10:16:22.340Z,95509.88
2022-11-01T10:17:42.748Z,95507.09
2022-11-01T10:19:11.156Z,95506.88
2022-11-01T10:20:14.597Z,95500.38
2022-11-01T10:21:19.086Z,95497.38
2022-11-01T10:22:31.464Z,95495.66
2022-11-01T10:23:49.097Z,95498.44
2022-11-01T10:25:28.075Z,95497.50
2022-11-01T10:26:30.921Z,95499.59
2022-11-01T10:27:37.778Z,95499.19
2022-11-01T10:29:02.558Z,95488.13
2022-11-01T10:30:15.812Z,95487.22
2022-11-01T10:31:22.889Z,95487.22
2022-11-01T10:32:30.244Z,95487.63
2022-11-01T10:34:10.545Z,95495.44
2022-11-01T10:35:27.492Z,95487.97
2022-11-01T10:36:34.142Z,95488.94
2022-11-01T10:37:57.425Z,95490.25
2022-11-01T10:40:46.400Z,95483.22
2022-11-01T10:41:50.144Z,95477.59
2022-11-01T10:42:51.701Z,95483.97
2022-11-01T10:43:58.070Z,95473.84
2022-11-01T10:45:04.587Z,95475.34
2022-11-01T10:46:09.063Z,95480.94
2022-11-01T10:47:19.409Z,95466.72
2022-11-01T10:48:34.012Z,95468.22
2022-11-01T10:50:00.567Z,95468.63
2022-11-01T10:51:04.717Z,95472.41
2022-11-01T10:52:11.190Z,95470.88
2022-11-01T10:54:26.939Z,95464.34
2022-11-01T10:55:52.966Z,95466.38
2022-11-01T10:56:57.853Z,95460.63
2022-11-01T10:58:08.142Z,95463.03
2022-11-01T10:59:20.738Z,95465.09
2022-11-01T11:00:23.669Z,95461.94
2022-11-01T11:01:28.210Z,95459.31
2022-11-01T11:02:38.693Z,95459.13
2022-11-01T11:03:42.918Z,95460.81
2022-11-01T11:04:44.485Z,95449.59
2022-11-01T11:05:48.584Z,95452.63
2022-11-01T11:06:51.444Z,95449.81
2022-11-01T11:07:53.237Z,95447.00
2022-11-01T11:08:56.604Z,95449.81
2022-11-01T11:09:59.385Z,95451.34
2022-11-01T11:11:07.945Z,95451.56
2022-11-01T11:12:22.293Z,95450.81
2022-11-01T11:13:26.554Z,95455.31
2022-11-01T11:14:31.707Z,95450.47
2022-11-01T11:15:57.172Z,95451.13
2022-11-01T11:17:00.984Z,95454.56
2022-11-01T11:18:08.173Z,95449.50
2022-11-01T11:19:34.182Z,95445.50
2022-11-01T11:20:37.524Z,95444.84
2022-11-01T11:21:39.411Z,95439.25
2022-11-01T11:22:43.173Z,95443.34
2022-11-01T11:23:46.572Z,95437.19
2022-11-01T11:24:49.481Z,95439.03
2022-11-01T11:25:51.194Z,95440.34
2022-11-01T11:26:56.088Z,95433.97
2022-11-01T11:27:57.811Z,95441.84
2022-11-01T11:28:59.408Z,95441.41
2022-11-01T11:30:05.870Z,95437.31
2022-11-01T11:31:25.433Z,95439.50
2022-11-01T11:32:33.365Z,95440.66
2022-11-01T11:33:34.951Z,95428.38
2022-11-01T11:34:38.281Z,95433.41
2022-11-01T11:35:40.528Z,95425.75
2022-11-01T11:36:45.444Z,95437.94
2022-11-01T11:38:06.905Z,95436.22
2022-11-01T11:39:23.326Z,95432.09
2022-11-01T11:40:28.721Z,95431.41
2022-11-01T11:41:32.987Z,95426.91
2022-11-01T11:42:34.554Z,95432.72
2022-11-01T11:43:41.054Z,95423.56
2022-11-01T11:44:48.279Z,95424.31
2022-11-01T11:46:15.853Z,95420.88
2022-11-01T11:47:25.699Z,95426.16
2022-11-01T11:48:27.413Z,95421.84
2022-11-01T11:49:29.452Z,95423.91
2022-11-01T11:50:33.425Z,95421.09
2022-11-01T11:51:38.073Z,95419.78
2022-11-01T11:52:39.952Z,95425.41
2022-11-01T11:53:41.555Z,95424.09
2022-11-01T11:54:44.046Z,95416.97
2022-11-01T11:55:57.856Z,95421.63
2022-11-01T11:57:16.454Z,95417.88
2022-11-01T11:58:29.798Z,95418.28
2022-11-01T11:59:32.362Z,95411.59
2022-11-01T12:00:37.674Z,95415.69
2022-11-01T12:01:39.510Z,95414.81
2022-11-01T12:02:41.834Z,95414.06
2022-11-01T12:03:52.359Z,95412.34
2022-11-01T12:04:59.698Z,95404.66
2022-11-01T12:06:07.129Z,95405.75
2022-11-01T12:07:22.904Z,95408.56
2022-11-01T12:08:49.119Z,95404.44
2022-11-01T12:09:51.236Z,95408.63
2022-11-01T12:10:58.071Z,95404.84
2022-11-01T12:12:06.867Z,95407.88
2022-11-01T12:13:45.363Z,95403.34
2022-11-01T12:14:47.085Z,95400.75
2022-11-01T12:15:48.621Z,95394.59
2022-11-01T12:16:50.711Z,95398.50
2022-11-01T12:17:52.566Z,95397.00
2022-11-01T12:18:56.839Z,95397.22
2022-11-01T12:20:22.179Z,95390.63
2022-11-01T12:21:42.322Z,95388.41
2022-11-01T12:23:26.725Z,95394.00
2022-11-01T12:24:47.464Z,95392.13
2022-11-01T12:25:50.687Z,95386.19
2022-11-01T12:26:55.384Z,95382.41
2022-11-01T12:28:03.238Z,95385.78
2022-11-01T12:29:33.380Z,95379.00
2022-11-01T12:30:37.891Z,95379.97
2022-11-01T12:31:43.307Z,95380.72
2022-11-01T12:32:51.535Z,95380.91
2022-11-01T12:34:10.538Z,95382.56
2022-11-01T12:35:26.506Z,95374.91
2022-11-01T12:36:33.733Z,95377.91
2022-11-01T12:37:57.183Z,95381.25
2022-11-01T12:39:10.625Z,95374.38
2022-11-01T12:40:29.996Z,95374.91
2022-11-01T12:41:43.829Z,95382.78
2022-11-01T12:42:58.595Z,95377.16
2022-11-01T12:44:29.076Z,95378.25
2022-11-01T12:45:51.975Z,95376.22
2022-11-01T12:47:02.134Z,95376.38
2022-11-01T12:48:09.593Z,95381.25
2022-11-01T12:49:49.052Z,95371.91
2022-11-01T12:50:57.970Z,95374.56
2022-11-01T12:52:15.101Z,95377.91
2022-11-01T12:53:31.457Z,95368.94
2022-11-01T12:54:42.386Z,95370.25